sensor_id;sensor_type;location;lat;lon;timestamp;P1;durP1;ratioP1;P2;durP2;ratioP2
20415;SDS011;10367;52.202;5.996;2024-02-23T00:00:06;10.53;;;8.57;;
20415;SDS011;10367;52.202;5.996;2024-02-23T00:02:37;14.97;;;9.30;;
20415;SDS011;10367;52.202;5.996;2024-02-23T00:05:06;12.20;;;8.60;;
20415;SDS011;10367;52.202;5.996;2024-02-23T00:07:35;11.30;;;8.77;;
20415;SDS011;10367;52.202;5.996;2024-02-23T00:10:04;12.87;;;9.20;;
20415;SDS011;10367;52.202;5.996;2024-02-23T00:12:34;12.37;;;9.77;;
20415;SDS011;10367;52.202;5.996;2024-02-23T00:15:04;11.20;;;8.77;;
20415;SDS011;10367;52.202;5.996;2024-02-23T00:17:35;15.20;;;8.87;;
20415;SDS011;10367;52.202;5.996;2024-02-23T00:20:08;13.60;;;8.67;;
20415;SDS011;10367;52.202;5.996;2024-02-23T00:22:38;14.07;;;9.43;;
20415;SDS011;10367;52.202;5.996;2024-02-23T00:25:07;10.37;;;7.83;;
20415;SDS011;10367;52.202;5.996;2024-02-23T00:27:36;15.97;;;9.33;;
20415;SDS011;10367;52.202;5.996;2024-02-23T00:30:08;17.07;;;9.50;;
20415;SDS011;10367;52.202;5.996;2024-02-23T00:32:37;13.87;;;9.03;;
20415;SDS011;10367;52.202;5.996;2024-02-23T00:35:06;12.40;;;8.10;;
20415;SDS011;10367;52.202;5.996;2024-02-23T00:37:35;19.33;;;10.50;;
20415;SDS011;10367;52.202;5.996;2024-02-23T00:40:05;14.10;;;8.90;;
20415;SDS011;10367;52.202;5.996;2024-02-23T00:42:34;13.97;;;8.43;;
20415;SDS011;10367;52.202;5.996;2024-02-23T00:45:03;17.27;;;8.10;;
20415;SDS011;10367;52.202;5.996;2024-02-23T00:47:34;10.87;;;7.80;;
20415;SDS011;10367;52.202;5.996;2024-02-23T00:50:05;13.30;;;7.83;;
20415;SDS011;10367;52.202;5.996;2024-02-23T00:52:35;13.97;;;9.00;;
20415;SDS011;10367;52.202;5.996;2024-02-23T00:55:04;12.43;;;7.93;;
20415;SDS011;10367;52.202;5.996;2024-02-23T00:57:35;17.47;;;8.60;;
20415;SDS011;10367;52.202;5.996;2024-02-23T01:00:04;15.10;;;8.67;;
20415;SDS011;10367;52.202;5.996;2024-02-23T01:02:38;17.67;;;8.77;;
20415;SDS011;10367;52.202;5.996;2024-02-23T01:05:07;15.33;;;7.97;;
20415;SDS011;10367;52.202;5.996;2024-02-23T01:07:37;16.57;;;8.93;;
20415;SDS011;10367;52.202;5.996;2024-02-23T01:10:06;11.87;;;8.00;;
20415;SDS011;10367;52.202;5.996;2024-02-23T01:12:36;15.90;;;8.27;;
20415;SDS011;10367;52.202;5.996;2024-02-23T01:15:05;19.63;;;9.57;;
20415;SDS011;10367;52.202;5.996;2024-02-23T01:17:34;13.93;;;8.07;;
20415;SDS011;10367;52.202;5.996;2024-02-23T01:20:06;15.97;;;9.57;;
20415;SDS011;10367;52.202;5.996;2024-02-23T01:22:36;12.40;;;7.43;;
20415;SDS011;10367;52.202;5.996;2024-02-23T01:25:05;8.07;;;7.17;;
20415;SDS011;10367;52.202;5.996;2024-02-23T01:27:34;11.93;;;7.77;;
20415;SDS011;10367;52.202;5.996;2024-02-23T01:30:04;14.30;;;8.97;;
20415;SDS011;10367;52.202;5.996;2024-02-23T01:32:34;14.83;;;8.23;;
20415;SDS011;10367;52.202;5.996;2024-02-23T01:35:06;16.10;;;9.23;;
20415;SDS011;10367;52.202;5.996;2024-02-23T01:37:36;16.07;;;9.20;;
20415;SDS011;10367;52.202;5.996;2024-02-23T01:40:05;17.83;;;8.80;;
20415;SDS011;10367;52.202;5.996;2024-02-23T01:42:35;10.10;;;7.37;;
20415;SDS011;10367;52.202;5.996;2024-02-23T01:45:04;13.20;;;8.40;;
20415;SDS011;10367;52.202;5.996;2024-02-23T01:47:34;12.07;;;8.33;;
20415;SDS011;10367;52.202;5.996;2024-02-23T01:50:03;11.77;;;7.03;;
20415;SDS011;10367;52.202;5.996;2024-02-23T01:52:36;9.73;;;7.30;;
20415;SDS011;10367;52.202;5.996;2024-02-23T01:55:05;10.70;;;8.03;;
20415;SDS011;10367;52.202;5.996;2024-02-23T01:57:35;15.00;;;7.03;;
20415;SDS011;10367;52.202;5.996;2024-02-23T02:00:16;12.53;;;7.20;;
20415;SDS011;10367;52.202;5.996;2024-02-23T02:02:48;17.20;;;8.83;;
20415;SDS011;10367;52.202;5.996;2024-02-23T02:05:16;12.67;;;8.43;;
20415;SDS011;10367;52.202;5.996;2024-02-23T02:07:47;13.73;;;8.30;;
20415;SDS011;10367;52.202;5.996;2024-02-23T02:10:20;14.10;;;8.57;;
20415;SDS011;10367;52.202;5.996;2024-02-23T02:12:49;13.80;;;7.73;;
20415;SDS011;10367;52.202;5.996;2024-02-23T02:15:18;10.47;;;7.57;;
20415;SDS011;10367;52.202;5.996;2024-02-23T02:17:49;19.83;;;10.03;;
20415;SDS011;10367;52.202;5.996;2024-02-23T02:20:17;12.40;;;8.43;;
20415;SDS011;10367;52.202;5.996;2024-02-23T02:22:51;15.93;;;9.43;;
20415;SDS011;10367;52.202;5.996;2024-02-23T02:25:20;13.23;;;8.10;;
20415;SDS011;10367;52.202;5.996;2024-02-23T02:27:48;23.93;;;11.13;;
20415;SDS011;10367;52.202;5.996;2024-02-23T02:30:17;24.83;;;12.17;;
20415;SDS011;10367;52.202;5.996;2024-02-23T02:32:46;24.23;;;11.33;;
20415;SDS011;10367;52.202;5.996;2024-02-23T02:35:15;23.23;;;11.07;;
20415;SDS011;10367;52.202;5.996;2024-02-23T02:37:44;13.50;;;8.80;;
20415;SDS011;10367;52.202;5.996;2024-02-23T02:40:14;17.27;;;9.80;;
20415;SDS011;10367;52.202;5.996;2024-02-23T02:42:43;19.50;;;10.57;;
20415;SDS011;10367;52.202;5.996;2024-02-23T02:45:12;16.60;;;9.20;;
20415;SDS011;10367;52.202;5.996;2024-02-23T02:47:44;23.83;;;11.00;;
20415;SDS011;10367;52.202;5.996;2024-02-23T02:50:13;16.97;;;9.13;;
20415;SDS011;10367;52.202;5.996;2024-02-23T02:52:42;14.17;;;8.50;;
20415;SDS011;10367;52.202;5.996;2024-02-23T02:55:11;19.13;;;8.90;;
20415;SDS011;10367;52.202;5.996;2024-02-23T02:57:41;19.27;;;9.53;;
20415;SDS011;10367;52.202;5.996;2024-02-23T03:00:10;13.30;;;8.80;;
20415;SDS011;10367;52.202;5.996;2024-02-23T03:02:39;13.10;;;9.03;;
20415;SDS011;10367;52.202;5.996;2024-02-23T03:05:08;18.97;;;9.60;;
20415;SDS011;10367;52.202;5.996;2024-02-23T03:07:36;17.10;;;8.70;;
20415;SDS011;10367;52.202;5.996;2024-02-23T03:10:07;13.17;;;8.70;;
20415;SDS011;10367;52.202;5.996;2024-02-23T03:12:36;15.27;;;8.27;;
20415;SDS011;10367;52.202;5.996;2024-02-23T03:15:06;17.70;;;9.10;;
20415;SDS011;10367;52.202;5.996;2024-02-23T03:17:38;25.20;;;9.80;;
20415;SDS011;10367;52.202;5.996;2024-02-23T03:20:07;11.83;;;7.90;;
20415;SDS011;10367;52.202;5.996;2024-02-23T03:22:39;14.20;;;8.33;;
20415;SDS011;10367;52.202;5.996;2024-02-23T03:25:08;16.50;;;7.77;;
20415;SDS011;10367;52.202;5.996;2024-02-23T03:27:37;13.43;;;8.93;;
20415;SDS011;10367;52.202;5.996;2024-02-23T03:30:08;10.47;;;8.20;;
20415;SDS011;10367;52.202;5.996;2024-02-23T03:32:38;15.20;;;9.30;;
20415;SDS011;10367;52.202;5.996;2024-02-23T03:35:07;17.97;;;9.20;;
20415;SDS011;10367;52.202;5.996;2024-02-23T03:37:36;14.00;;;9.13;;
20415;SDS011;10367;52.202;5.996;2024-02-23T03:40:05;13.57;;;8.90;;
20415;SDS011;10367;52.202;5.996;2024-02-23T03:42:37;11.33;;;7.63;;
20415;SDS011;10367;52.202;5.996;2024-02-23T03:45:05;15.50;;;9.10;;
20415;SDS011;10367;52.202;5.996;2024-02-23T03:47:38;10.07;;;7.40;;
20415;SDS011;10367;52.202;5.996;2024-02-23T03:50:08;16.80;;;9.60;;
20415;SDS011;10367;52.202;5.996;2024-02-23T03:52:38;12.53;;;8.27;;
20415;SDS011;10367;52.202;5.996;2024-02-23T03:55:07;15.83;;;8.87;;
20415;SDS011;10367;52.202;5.996;2024-02-23T03:57:36;16.57;;;9.57;;
20415;SDS011;10367;52.202;5.996;2024-02-23T04:00:05;13.53;;;7.87;;
20415;SDS011;10367;52.202;5.996;2024-02-23T04:02:36;18.20;;;7.80;;
20415;SDS011;10367;52.202;5.996;2024-02-23T04:05:07;12.47;;;6.97;;
20415;SDS011;10367;52.202;5.996;2024-02-23T04:07:36;17.87;;;9.50;;
20415;SDS011;10367;52.202;5.996;2024-02-23T04:10:05;17.53;;;9.67;;
20415;SDS011;10367;52.202;5.996;2024-02-23T04:12:35;12.53;;;8.67;;
20415;SDS011;10367;52.202;5.996;2024-02-23T04:15:04;21.20;;;10.35;;
20415;SDS011;10367;52.202;5.996;2024-02-23T04:17:34;11.90;;;8.10;;
20415;SDS011;10367;52.202;5.996;2024-02-23T04:20:06;10.73;;;7.77;;
20415;SDS011;10367;52.202;5.996;2024-02-23T04:22:36;17.87;;;8.33;;
20415;SDS011;10367;52.202;5.996;2024-02-23T04:25:05;12.23;;;7.90;;
20415;SDS011;10367;52.202;5.996;2024-02-23T04:27:34;12.93;;;8.03;;
20415;SDS011;10367;52.202;5.996;2024-02-23T04:30:03;15.23;;;8.20;;
20415;SDS011;10367;52.202;5.996;2024-02-23T04:32:35;14.17;;;8.90;;
20415;SDS011;10367;52.202;5.996;2024-02-23T04:35:04;12.40;;;7.70;;
20415;SDS011;10367;52.202;5.996;2024-02-23T04:37:33;16.17;;;8.37;;
20415;SDS011;10367;52.202;5.996;2024-02-23T04:40:03;13.80;;;8.33;;
20415;SDS011;10367;52.202;5.996;2024-02-23T04:42:33;16.33;;;9.17;;
20415;SDS011;10367;52.202;5.996;2024-02-23T04:45:02;18.23;;;9.60;;
20415;SDS011;10367;52.202;5.996;2024-02-23T04:47:31;20.67;;;10.23;;
20415;SDS011;10367;52.202;5.996;2024-02-23T04:50:02;12.00;;;7.73;;
20415;SDS011;10367;52.202;5.996;2024-02-23T04:52:31;8.47;;;7.30;;
20415;SDS011;10367;52.202;5.996;2024-02-23T04:55:00;17.13;;;9.30;;
20415;SDS011;10367;52.202;5.996;2024-02-23T04:57:28;14.17;;;7.97;;
20415;SDS011;10367;52.202;5.996;2024-02-23T04:59:57;15.30;;;8.63;;
20415;SDS011;10367;52.202;5.996;2024-02-23T05:02:26;12.10;;;7.80;;
20415;SDS011;10367;52.202;5.996;2024-02-23T05:05:02;16.13;;;9.60;;
20415;SDS011;10367;52.202;5.996;2024-02-23T05:07:32;8.47;;;7.03;;
20415;SDS011;10367;52.202;5.996;2024-02-23T05:10:01;11.73;;;8.73;;
20415;SDS011;10367;52.202;5.996;2024-02-23T05:12:30;13.23;;;8.60;;
20415;SDS011;10367;52.202;5.996;2024-02-23T05:14:59;11.47;;;8.37;;
20415;SDS011;10367;52.202;5.996;2024-02-23T05:17:28;19.20;;;8.50;;
20415;SDS011;10367;52.202;5.996;2024-02-23T05:19:57;14.70;;;9.27;;
20415;SDS011;10367;52.202;5.996;2024-02-23T05:22:27;16.03;;;8.53;;
20415;SDS011;10367;52.202;5.996;2024-02-23T05:24:56;17.33;;;9.17;;
20415;SDS011;10367;52.202;5.996;2024-02-23T05:27:25;16.83;;;9.13;;
20415;SDS011;10367;52.202;5.996;2024-02-23T05:29:54;23.53;;;11.37;;
20415;SDS011;10367;52.202;5.996;2024-02-23T05:32:22;11.80;;;8.40;;
20415;SDS011;10367;52.202;5.996;2024-02-23T05:34:51;21.17;;;8.83;;
20415;SDS011;10367;52.202;5.996;2024-02-23T05:37:21;17.00;;;8.50;;
20415;SDS011;10367;52.202;5.996;2024-02-23T05:39:52;15.73;;;9.20;;
20415;SDS011;10367;52.202;5.996;2024-02-23T05:42:22;15.60;;;9.33;;
20415;SDS011;10367;52.202;5.996;2024-02-23T05:44:50;15.63;;;9.10;;
20415;SDS011;10367;52.202;5.996;2024-02-23T05:47:19;17.00;;;9.57;;
20415;SDS011;10367;52.202;5.996;2024-02-23T05:49:49;15.57;;;9.23;;
20415;SDS011;10367;52.202;5.996;2024-02-23T05:52:18;16.60;;;8.70;;
20415;SDS011;10367;52.202;5.996;2024-02-23T05:54:47;15.97;;;8.80;;
20415;SDS011;10367;52.202;5.996;2024-02-23T05:57:19;15.67;;;9.23;;
20415;SDS011;10367;52.202;5.996;2024-02-23T05:59:48;18.73;;;9.50;;
20415;SDS011;10367;52.202;5.996;2024-02-23T06:02:18;13.37;;;7.83;;
20415;SDS011;10367;52.202;5.996;2024-02-23T06:04:46;17.60;;;8.67;;
20415;SDS011;10367;52.202;5.996;2024-02-23T06:07:15;19.33;;;8.83;;
20415;SDS011;10367;52.202;5.996;2024-02-23T06:09:44;14.20;;;7.67;;
20415;SDS011;10367;52.202;5.996;2024-02-23T06:12:13;13.47;;;8.67;;
20415;SDS011;10367;52.202;5.996;2024-02-23T06:14:44;15.60;;;8.77;;
20415;SDS011;10367;52.202;5.996;2024-02-23T06:17:12;14.90;;;8.53;;
20415;SDS011;10367;52.202;5.996;2024-02-23T06:19:41;14.23;;;8.63;;
20415;SDS011;10367;52.202;5.996;2024-02-23T06:22:12;16.83;;;8.37;;
20415;SDS011;10367;52.202;5.996;2024-02-23T06:24:47;15.17;;;8.70;;
20415;SDS011;10367;52.202;5.996;2024-02-23T06:27:16;17.70;;;8.67;;
20415;SDS011;10367;52.202;5.996;2024-02-23T06:29:46;22.23;;;8.90;;
20415;SDS011;10367;52.202;5.996;2024-02-23T06:32:15;17.10;;;9.00;;
20415;SDS011;10367;52.202;5.996;2024-02-23T06:34:46;16.70;;;10.10;;
20415;SDS011;10367;52.202;5.996;2024-02-23T06:37:14;12.00;;;8.27;;
20415;SDS011;10367;52.202;5.996;2024-02-23T06:39:43;19.90;;;9.23;;
20415;SDS011;10367;52.202;5.996;2024-02-23T06:42:16;10.10;;;7.73;;
20415;SDS011;10367;52.202;5.996;2024-02-23T06:44:47;20.80;;;9.77;;
20415;SDS011;10367;52.202;5.996;2024-02-23T06:47:15;13.80;;;8.27;;
20415;SDS011;10367;52.202;5.996;2024-02-23T06:49:44;23.03;;;9.13;;
20415;SDS011;10367;52.202;5.996;2024-02-23T06:52:14;14.93;;;9.13;;
20415;SDS011;10367;52.202;5.996;2024-02-23T06:54:43;14.13;;;7.73;;
20415;SDS011;10367;52.202;5.996;2024-02-23T06:57:12;12.13;;;7.87;;
20415;SDS011;10367;52.202;5.996;2024-02-23T06:59:40;12.50;;;8.50;;
20415;SDS011;10367;52.202;5.996;2024-02-23T07:02:10;12.47;;;7.93;;
20415;SDS011;10367;52.202;5.996;2024-02-23T07:04:39;16.23;;;8.73;;
20415;SDS011;10367;52.202;5.996;2024-02-23T07:07:08;16.63;;;8.57;;
20415;SDS011;10367;52.202;5.996;2024-02-23T07:09:38;14.00;;;8.40;;
20415;SDS011;10367;52.202;5.996;2024-02-23T07:12:07;17.97;;;10.07;;
20415;SDS011;10367;52.202;5.996;2024-02-23T07:14:38;15.83;;;8.73;;
20415;SDS011;10367;52.202;5.996;2024-02-23T07:17:07;17.97;;;9.63;;
20415;SDS011;10367;52.202;5.996;2024-02-23T07:19:37;13.50;;;8.63;;
20415;SDS011;10367;52.202;5.996;2024-02-23T07:22:06;18.57;;;10.37;;
20415;SDS011;10367;52.202;5.996;2024-02-23T07:24:39;12.53;;;8.53;;
20415;SDS011;10367;52.202;5.996;2024-02-23T07:27:07;16.90;;;9.50;;
20415;SDS011;10367;52.202;5.996;2024-02-23T07:29:36;14.30;;;8.90;;
20415;SDS011;10367;52.202;5.996;2024-02-23T07:32:05;19.43;;;9.43;;
20415;SDS011;10367;52.202;5.996;2024-02-23T07:34:35;15.73;;;9.20;;
20415;SDS011;10367;52.202;5.996;2024-02-23T07:37:08;14.40;;;9.30;;
20415;SDS011;10367;52.202;5.996;2024-02-23T07:39:36;13.63;;;8.60;;
20415;SDS011;10367;52.202;5.996;2024-02-23T07:42:05;12.17;;;8.73;;
20415;SDS011;10367;52.202;5.996;2024-02-23T07:44:37;12.53;;;8.57;;
20415;SDS011;10367;52.202;5.996;2024-02-23T07:47:05;16.20;;;9.67;;
20415;SDS011;10367;52.202;5.996;2024-02-23T07:49:35;21.33;;;9.20;;
20415;SDS011;10367;52.202;5.996;2024-02-23T07:52:04;16.43;;;9.37;;
20415;SDS011;10367;52.202;5.996;2024-02-23T07:54:37;14.63;;;9.17;;
20415;SDS011;10367;52.202;5.996;2024-02-23T07:57:06;15.60;;;9.03;;
20415;SDS011;10367;52.202;5.996;2024-02-23T07:59:36;13.63;;;8.53;;
20415;SDS011;10367;52.202;5.996;2024-02-23T08:02:05;15.37;;;9.53;;
20415;SDS011;10367;52.202;5.996;2024-02-23T08:04:34;10.60;;;8.63;;
20415;SDS011;10367;52.202;5.996;2024-02-23T08:07:02;16.20;;;10.03;;
20415;SDS011;10367;52.202;5.996;2024-02-23T08:09:32;11.70;;;8.93;;
20415;SDS011;10367;52.202;5.996;2024-02-23T08:12:02;19.00;;;10.37;;
20415;SDS011;10367;52.202;5.996;2024-02-23T08:14:31;10.83;;;8.27;;
20415;SDS011;10367;52.202;5.996;2024-02-23T08:17:00;13.70;;;8.73;;
20415;SDS011;10367;52.202;5.996;2024-02-23T08:19:29;12.37;;;8.17;;
20415;SDS011;10367;52.202;5.996;2024-02-23T08:21:57;18.90;;;10.70;;
20415;SDS011;10367;52.202;5.996;2024-02-23T08:24:26;12.03;;;8.73;;
20415;SDS011;10367;52.202;5.996;2024-02-23T08:26:55;16.97;;;11.37;;
20415;SDS011;10367;52.202;5.996;2024-02-23T08:29:26;15.53;;;9.10;;
20415;SDS011;10367;52.202;5.996;2024-02-23T08:31:54;21.30;;;10.03;;
20415;SDS011;10367;52.202;5.996;2024-02-23T08:34:23;12.23;;;9.27;;
20415;SDS011;10367;52.202;5.996;2024-02-23T08:36:52;22.97;;;11.77;;
20415;SDS011;10367;52.202;5.996;2024-02-23T08:39:21;17.13;;;9.67;;
20415;SDS011;10367;52.202;5.996;2024-02-23T08:41:50;14.30;;;9.70;;
20415;SDS011;10367;52.202;5.996;2024-02-23T08:44:20;13.70;;;9.17;;
20415;SDS011;10367;52.202;5.996;2024-02-23T08:46:50;18.13;;;10.93;;
20415;SDS011;10367;52.202;5.996;2024-02-23T08:49:19;18.37;;;10.60;;
20415;SDS011;10367;52.202;5.996;2024-02-23T08:51:48;18.97;;;10.40;;
20415;SDS011;10367;52.202;5.996;2024-02-23T08:54:16;17.50;;;10.90;;
20415;SDS011;10367;52.202;5.996;2024-02-23T08:56:45;13.73;;;9.97;;
20415;SDS011;10367;52.202;5.996;2024-02-23T08:59:14;15.33;;;9.53;;
20415;SDS011;10367;52.202;5.996;2024-02-23T09:01:43;16.83;;;9.87;;
20415;SDS011;10367;52.202;5.996;2024-02-23T09:04:15;16.37;;;9.57;;
20415;SDS011;10367;52.202;5.996;2024-02-23T09:06:43;21.63;;;9.33;;
20415;SDS011;10367;52.202;5.996;2024-02-23T09:09:12;13.50;;;9.90;;
20415;SDS011;10367;52.202;5.996;2024-02-23T09:11:41;12.33;;;9.47;;
20415;SDS011;10367;52.202;5.996;2024-02-23T09:14:10;13.27;;;9.80;;
20415;SDS011;10367;52.202;5.996;2024-02-23T09:16:39;13.70;;;9.67;;
20415;SDS011;10367;52.202;5.996;2024-02-23T09:19:08;20.57;;;11.13;;
20415;SDS011;10367;52.202;5.996;2024-02-23T09:21:38;15.10;;;10.13;;
20415;SDS011;10367;52.202;5.996;2024-02-23T09:24:07;17.90;;;10.60;;
20415;SDS011;10367;52.202;5.996;2024-02-23T09:26:36;15.30;;;10.17;;
20415;SDS011;10367;52.202;5.996;2024-02-23T09:29:06;17.33;;;11.50;;
20415;SDS011;10367;52.202;5.996;2024-02-23T09:31:35;12.40;;;9.77;;
20415;SDS011;10367;52.202;5.996;2024-02-23T09:34:04;21.33;;;11.60;;
20415;SDS011;10367;52.202;5.996;2024-02-23T09:36:33;14.40;;;10.33;;
20415;SDS011;10367;52.202;5.996;2024-02-23T09:39:03;19.33;;;11.30;;
20415;SDS011;10367;52.202;5.996;2024-02-23T09:41:32;10.17;;;9.17;;
20415;SDS011;10367;52.202;5.996;2024-02-23T09:44:05;15.67;;;11.43;;
20415;SDS011;10367;52.202;5.996;2024-02-23T09:46:34;13.97;;;10.00;;
20415;SDS011;10367;52.202;5.996;2024-02-23T09:49:05;10.50;;;9.50;;
20415;SDS011;10367;52.202;5.996;2024-02-23T09:51:35;14.50;;;10.17;;
20415;SDS011;10367;52.202;5.996;2024-02-23T09:54:06;19.27;;;9.70;;
20415;SDS011;10367;52.202;5.996;2024-02-23T09:56:35;13.43;;;10.23;;
20415;SDS011;10367;52.202;5.996;2024-02-23T09:59:04;13.37;;;10.27;;
20415;SDS011;10367;52.202;5.996;2024-02-23T10:01:33;13.33;;;9.07;;
20415;SDS011;10367;52.202;5.996;2024-02-23T10:04:03;15.03;;;10.73;;
20415;SDS011;10367;52.202;5.996;2024-02-23T10:06:33;13.63;;;9.57;;
20415;SDS011;10367;52.202;5.996;2024-02-23T10:09:02;14.67;;;10.20;;
20415;SDS011;10367;52.202;5.996;2024-02-23T10:11:33;13.80;;;10.20;;
20415;SDS011;10367;52.202;5.996;2024-02-23T10:14:02;14.77;;;10.77;;
20415;SDS011;10367;52.202;5.996;2024-02-23T10:16:31;12.13;;;10.53;;
20415;SDS011;10367;52.202;5.996;2024-02-23T10:19:00;19.80;;;12.23;;
20415;SDS011;10367;52.202;5.996;2024-02-23T10:21:29;13.07;;;10.60;;
20415;SDS011;10367;52.202;5.996;2024-02-23T10:24:00;12.60;;;10.97;;
20415;SDS011;10367;52.202;5.996;2024-02-23T10:26:29;12.10;;;10.17;;
20415;SDS011;10367;52.202;5.996;2024-02-23T10:28:59;16.80;;;11.57;;
20415;SDS011;10367;52.202;5.996;2024-02-23T10:31:28;14.37;;;11.27;;
20415;SDS011;10367;52.202;5.996;2024-02-23T10:34:02;11.33;;;10.20;;
20415;SDS011;10367;52.202;5.996;2024-02-23T10:36:40;12.23;;;9.47;;
20415;SDS011;10367;52.202;5.996;2024-02-23T10:39:13;11.43;;;9.33;;
20415;SDS011;10367;52.202;5.996;2024-02-23T10:41:46;16.43;;;11.13;;
20415;SDS011;10367;52.202;5.996;2024-02-23T10:44:19;16.13;;;10.87;;
20415;SDS011;10367;52.202;5.996;2024-02-23T10:46:49;13.30;;;10.67;;
20415;SDS011;10367;52.202;5.996;2024-02-23T10:49:19;12.60;;;10.37;;
20415;SDS011;10367;52.202;5.996;2024-02-23T10:51:53;15.77;;;10.83;;
20415;SDS011;10367;52.202;5.996;2024-02-23T10:54:23;11.53;;;10.37;;
20415;SDS011;10367;52.202;5.996;2024-02-23T10:56:52;13.47;;;10.63;;
20415;SDS011;10367;52.202;5.996;2024-02-23T10:59:24;15.07;;;11.17;;
20415;SDS011;10367;52.202;5.996;2024-02-23T11:01:54;13.30;;;10.60;;
20415;SDS011;10367;52.202;5.996;2024-02-23T11:04:26;12.90;;;10.77;;
20415;SDS011;10367;52.202;5.996;2024-02-23T11:06:56;13.77;;;10.97;;
20415;SDS011;10367;52.202;5.996;2024-02-23T11:09:26;14.83;;;10.37;;
20415;SDS011;10367;52.202;5.996;2024-02-23T11:11:56;15.97;;;11.47;;
20415;SDS011;10367;52.202;5.996;2024-02-23T11:14:31;11.53;;;9.57;;
20415;SDS011;10367;52.202;5.996;2024-02-23T11:17:00;15.60;;;11.17;;
20415;SDS011;10367;52.202;5.996;2024-02-23T11:19:33;14.63;;;10.53;;
20415;SDS011;10367;52.202;5.996;2024-02-23T11:22:03;15.77;;;11.37;;
20415;SDS011;10367;52.202;5.996;2024-02-23T11:24:42;13.40;;;10.43;;
20415;SDS011;10367;52.202;5.996;2024-02-23T11:27:13;13.40;;;10.33;;
20415;SDS011;10367;52.202;5.996;2024-02-23T11:29:46;15.03;;;11.43;;
20415;SDS011;10367;52.202;5.996;2024-02-23T11:32:16;15.43;;;11.37;;
20415;SDS011;10367;52.202;5.996;2024-02-23T11:34:54;12.77;;;10.23;;
20415;SDS011;10367;52.202;5.996;2024-02-23T11:37:27;13.10;;;10.60;;
20415;SDS011;10367;52.202;5.996;2024-02-23T11:39:56;17.00;;;11.30;;
20415;SDS011;10367;52.202;5.996;2024-02-23T11:42:26;11.90;;;10.10;;
20415;SDS011;10367;52.202;5.996;2024-02-23T11:44:56;15.27;;;11.80;;
20415;SDS011;10367;52.202;5.996;2024-02-23T11:47:26;10.90;;;9.93;;
20415;SDS011;10367;52.202;5.996;2024-02-23T11:49:55;16.27;;;11.90;;
20415;SDS011;10367;52.202;5.996;2024-02-23T11:52:23;10.37;;;9.30;;
20415;SDS011;10367;52.202;5.996;2024-02-23T11:54:52;14.07;;;10.60;;
20415;SDS011;10367;52.202;5.996;2024-02-23T11:57:22;14.20;;;9.57;;
20415;SDS011;10367;52.202;5.996;2024-02-23T11:59:52;17.00;;;12.20;;
20415;SDS011;10367;52.202;5.996;2024-02-23T12:02:24;11.67;;;9.57;;
20415;SDS011;10367;52.202;5.996;2024-02-23T12:04:53;16.70;;;11.87;;
20415;SDS011;10367;52.202;5.996;2024-02-23T12:07:22;15.47;;;10.80;;
20415;SDS011;10367;52.202;5.996;2024-02-23T12:09:53;16.90;;;12.63;;
20415;SDS011;10367;52.202;5.996;2024-02-23T12:12:25;13.23;;;10.87;;
20415;SDS011;10367;52.202;5.996;2024-02-23T12:14:54;20.23;;;12.17;;
20415;SDS011;10367;52.202;5.996;2024-02-23T12:17:22;11.50;;;10.43;;
20415;SDS011;10367;52.202;5.996;2024-02-23T12:19:57;12.27;;;10.93;;
20415;SDS011;10367;52.202;5.996;2024-02-23T12:22:27;13.30;;;11.60;;
20415;SDS011;10367;52.202;5.996;2024-02-23T12:24:56;16.97;;;12.33;;
20415;SDS011;10367;52.202;5.996;2024-02-23T12:27:25;14.77;;;10.80;;
20415;SDS011;10367;52.202;5.996;2024-02-23T12:29:56;12.47;;;11.17;;
20415;SDS011;10367;52.202;5.996;2024-02-23T12:32:26;13.80;;;11.47;;
20415;SDS011;10367;52.202;5.996;2024-02-23T12:34:55;13.60;;;11.60;;
20415;SDS011;10367;52.202;5.996;2024-02-23T12:37:24;11.53;;;10.43;;
20415;SDS011;10367;52.202;5.996;2024-02-23T12:39:53;16.37;;;11.57;;
20415;SDS011;10367;52.202;5.996;2024-02-23T12:42:21;12.50;;;11.23;;
20415;SDS011;10367;52.202;5.996;2024-02-23T12:44:50;13.27;;;10.90;;
20415;SDS011;10367;52.202;5.996;2024-02-23T12:47:19;15.23;;;11.47;;
20415;SDS011;10367;52.202;5.996;2024-02-23T12:49:49;13.37;;;11.60;;
20415;SDS011;10367;52.202;5.996;2024-02-23T12:52:17;14.00;;;11.60;;
20415;SDS011;10367;52.202;5.996;2024-02-23T12:54:46;12.67;;;10.53;;
20415;SDS011;10367;52.202;5.996;2024-02-23T12:57:18;16.93;;;11.97;;
20415;SDS011;10367;52.202;5.996;2024-02-23T12:59:47;17.97;;;12.50;;
20415;SDS011;10367;52.202;5.996;2024-02-23T13:02:16;20.07;;;12.20;;
20415;SDS011;10367;52.202;5.996;2024-02-23T13:04:45;14.03;;;11.30;;
20415;SDS011;10367;52.202;5.996;2024-02-23T13:07:20;13.77;;;11.53;;
20415;SDS011;10367;52.202;5.996;2024-02-23T13:09:49;12.20;;;10.43;;
20415;SDS011;10367;52.202;5.996;2024-02-23T13:12:18;13.77;;;11.00;;
20415;SDS011;10367;52.202;5.996;2024-02-23T13:14:47;10.13;;;9.37;;
20415;SDS011;10367;52.202;5.996;2024-02-23T13:17:16;12.40;;;11.23;;
20415;SDS011;10367;52.202;5.996;2024-02-23T13:19:44;12.00;;;10.63;;
20415;SDS011;10367;52.202;5.996;2024-02-23T13:22:29;11.40;;;10.33;;
20415;SDS011;10367;52.202;5.996;2024-02-23T13:24:58;12.87;;;11.57;;
20415;SDS011;10367;52.202;5.996;2024-02-23T13:27:26;13.73;;;11.50;;
20415;SDS011;10367;52.202;5.996;2024-02-23T13:29:56;18.50;;;12.30;;
20415;SDS011;10367;52.202;5.996;2024-02-23T13:32:25;15.50;;;12.47;;
20415;SDS011;10367;52.202;5.996;2024-02-23T13:34:54;15.33;;;12.43;;
20415;SDS011;10367;52.202;5.996;2024-02-23T13:37:23;14.77;;;12.20;;
20415;SDS011;10367;52.202;5.996;2024-02-23T13:39:54;15.10;;;11.67;;
20415;SDS011;10367;52.202;5.996;2024-02-23T13:42:23;12.80;;;11.43;;
20415;SDS011;10367;52.202;5.996;2024-02-23T13:44:52;10.97;;;9.97;;
20415;SDS011;10367;52.202;5.996;2024-02-23T13:47:23;13.53;;;12.20;;
20415;SDS011;10367;52.202;5.996;2024-02-23T13:49:52;16.53;;;12.57;;
20415;SDS011;10367;52.202;5.996;2024-02-23T13:52:21;16.00;;;12.07;;
20415;SDS011;10367;52.202;5.996;2024-02-23T13:54:50;12.43;;;11.33;;
20415;SDS011;10367;52.202;5.996;2024-02-23T13:57:20;12.27;;;11.07;;
20415;SDS011;10367;52.202;5.996;2024-02-23T13:59:49;13.80;;;10.70;;
20415;SDS011;10367;52.202;5.996;2024-02-23T14:02:23;13.43;;;11.77;;
20415;SDS011;10367;52.202;5.996;2024-02-23T14:04:53;13.93;;;11.27;;
20415;SDS011;10367;52.202;5.996;2024-02-23T14:07:28;11.83;;;10.70;;
20415;SDS011;10367;52.202;5.996;2024-02-23T14:09:57;13.57;;;11.97;;
20415;SDS011;10367;52.202;5.996;2024-02-23T14:12:28;14.87;;;12.57;;
20415;SDS011;10367;52.202;5.996;2024-02-23T14:14:57;14.13;;;11.97;;
20415;SDS011;10367;52.202;5.996;2024-02-23T14:17:26;11.67;;;10.50;;
20415;SDS011;10367;52.202;5.996;2024-02-23T14:19:58;14.13;;;11.60;;
20415;SDS011;10367;52.202;5.996;2024-02-23T14:22:31;16.70;;;12.20;;
20415;SDS011;10367;52.202;5.996;2024-02-23T14:25:00;14.70;;;11.87;;
20415;SDS011;10367;52.202;5.996;2024-02-23T14:27:30;18.23;;;13.57;;
20415;SDS011;10367;52.202;5.996;2024-02-23T14:30:02;16.40;;;13.03;;
20415;SDS011;10367;52.202;5.996;2024-02-23T14:32:31;14.07;;;12.17;;
20415;SDS011;10367;52.202;5.996;2024-02-23T14:35:00;16.27;;;11.33;;
20415;SDS011;10367;52.202;5.996;2024-02-23T14:37:33;15.50;;;11.77;;
20415;SDS011;10367;52.202;5.996;2024-02-23T14:40:03;15.57;;;12.43;;
20415;SDS011;10367;52.202;5.996;2024-02-23T14:42:34;12.80;;;11.50;;